Terminal Aerodrome Forecast
Issued by NWS Twin Cities, MN

Home | Current Version | Previous Version | Text Only | Print | Product List | Glossary Off
Versions: 1 2 3 4 5 6 7 8 9 10 11 12 13 14 15 16 17

037
FTUS43 KMPX 231739
TAFEAU
TAF
KEAU 231739Z 2318/2418 35009KT P6SM SCT015 OVC025
     FM232100 02008KT P6SM SCT025 BKN040
     FM240500 04011G19KT 6SM -SN OVC030
     FM240800 04012G23KT 2SM -SN OVC015
     FM241000 03014G25KT 1SM -SN OVC008=

USA.gov is the U.S. government's official web portal to all federal, state and local government web resources and services.